Time;durP1;ratioP1;P1;durP2;ratioP2;P2;SDS_P1;SDS_P2;PMS_P1;PMS_P2;Temp;Humidity;BMP_temperature;BMP_pressure;BME280_temperature;BME280_humidity;BME280_pressure;Samples;Min_cycle;Max_cycle;Signal;HPM_P1;HPM_P2
2023/09/07 00:01:46;;;;;;;7.10;5.00;;;;;;;12.97;87.21;97566.95;109203;1271;24363;-80
2023/09/07 00:04:22;;;;;;;7.90;4.80;;;;;;;13.02;87.48;97566.52;109237;1266;22848;-79
2023/09/07 00:06:55;;;;;;;8.20;5.10;;;;;;;13.11;87.69;97571.55;109194;1266;25888;-80
2023/09/07 00:09:29;;;;;;;8.10;5.30;;;;;;;13.20;87.44;97569.14;109212;1272;22518;-80
2023/09/07 00:12:01;;;;;;;8.10;5.30;;;;;;;13.29;87.19;97573.01;109256;1269;22545;-79
2023/09/07 00:14:32;;;;;;;7.10;4.60;;;;;;;13.36;86.94;97568.03;109221;1266;22523;-80
2023/09/07 00:17:07;;;;;;;8.10;5.50;;;;;;;13.41;86.69;97568.19;109199;1265;24241;-80
2023/09/07 00:19:48;;;;;;;7.90;5.10;;;;;;;13.37;86.10;97570.00;109224;1269;22542;-80
2023/09/07 00:22:22;;;;;;;7.30;4.70;;;;;;;13.15;85.66;97569.95;109149;1266;46255;-80
2023/09/07 00:24:55;;;;;;;11.50;5.20;;;;;;;12.97;85.94;97566.84;109229;1271;23100;-79
2023/09/07 00:27:27;;;;;;;8.20;4.90;;;;;;;12.91;86.52;97566.48;109282;1271;26460;-79
2023/09/07 00:30:01;;;;;;;9.40;5.20;;;;;;;12.81;86.37;97567.83;109226;1269;24629;-79
2023/09/07 00:32:32;;;;;;;9.70;5.80;;;;;;;12.71;86.78;97570.83;109242;1266;22529;-80
2023/09/07 00:35:10;;;;;;;7.80;5.40;;;;;;;12.69;87.34;97569.44;109290;1271;25023;-80
2023/09/07 00:37:48;;;;;;;8.80;5.70;;;;;;;12.74;88.01;97568.64;109264;1271;22587;-80
2023/09/07 00:40:20;;;;;;;7.50;5.30;;;;;;;12.85;88.32;97573.30;109257;1272;24504;-79
2023/09/07 00:42:52;;;;;;;5.90;4.80;;;;;;;12.96;88.33;97575.10;109215;1272;38799;-79
2023/09/07 00:45:24;;;;;;;7.30;5.00;;;;;;;13.04;88.28;97572.98;109222;1272;22513;-79
2023/09/07 00:47:57;;;;;;;8.10;4.80;;;;;;;13.12;88.18;97573.20;108874;1272;22519;-79
2023/09/07 00:50:30;;;;;;;6.40;4.90;;;;;;;13.19;87.81;97571.60;108901;1272;23794;-79
2023/09/07 00:53:07;;;;;;;7.90;5.40;;;;;;;13.19;87.35;97570.73;109112;1269;40262;-80
2023/09/07 00:55:43;;;;;;;8.90;5.60;;;;;;;13.08;86.65;97572.46;109176;1269;25313;-80
2023/09/07 00:58:21;;;;;;;16.60;7.60;;;;;;;12.89;86.79;97569.73;109224;1269;22529;-80
2023/09/07 01:00:52;;;;;;;10.30;5.70;;;;;;;12.82;87.34;97565.65;109199;1271;24254;-80
2023/09/07 01:03:26;;;;;;;8.30;5.90;;;;;;;12.83;87.85;97563.63;109252;1269;27368;-79
2023/09/07 01:06:05;;;;;;;6.90;4.60;;;;;;;12.85;88.01;97564.04;109204;1254;22618;-79
2023/09/07 01:08:42;;;;;;;6.20;4.70;;;;;;;12.91;88.11;97564.02;109212;1263;22512;-80
2023/09/07 01:11:20;;;;;;;6.50;4.90;;;;;;;12.94;87.88;97564.80;109206;1272;30976;-80
2023/09/07 01:13:53;;;;;;;9.10;5.30;;;;;;;12.97;87.67;97567.44;109259;1263;22529;-80
2023/09/07 01:16:28;;;;;;;8.00;4.90;;;;;;;12.99;87.38;97569.45;109234;1265;22526;-80
2023/09/07 01:18:59;;;;;;;7.40;5.10;;;;;;;12.99;87.25;97568.65;109313;1265;22553;-80
2023/09/07 01:21:37;;;;;;;6.80;4.80;;;;;;;13.00;86.92;97567.52;109183;1269;40300;-79
2023/09/07 01:24:16;;;;;;;8.40;4.70;;;;;;;12.97;86.98;97574.57;109273;1270;22520;-79
2023/09/07 01:26:49;;;;;;;;;;;;;;;13.01;86.98;97570.82;109175;1272;22503;-79
2023/09/07 01:29:22;;;;;;;6.90;4.70;;;;;;;13.04;87.22;97568.26;109159;1272;24003;-79
2023/09/07 01:31:53;;;;;;;6.40;4.70;;;;;;;13.10;87.26;97573.84;109077;1272;33125;-79
2023/09/07 01:34:25;;;;;;;6.70;4.90;;;;;;;13.12;87.12;97571.60;109143;1272;22615;-79
2023/09/07 01:36:59;;;;;;;7.40;5.20;;;;;;;13.13;86.82;97570.11;109066;1273;22548;-79
2023/09/07 01:39:31;;;;;;;8.20;5.00;;;;;;;13.09;86.70;97569.84;109113;1272;22506;-79
2023/09/07 01:42:01;;;;;;;6.60;5.20;;;;;;;13.08;86.88;97568.14;109064;1272;22649;-79
2023/09/07 01:44:32;;;;;;;8.90;5.20;;;;;;;13.11;87.01;97566.60;109147;1266;22512;-79
2023/09/07 01:47:04;;;;;;;9.50;5.40;;;;;;;13.07;86.96;97566.17;109173;1269;23872;-79
2023/09/07 01:49:40;;;;;;;8.60;5.30;;;;;;;12.96;86.92;97559.44;109119;1265;22519;-79
2023/09/07 01:52:12;;;;;;;8.40;5.10;;;;;;;12.90;87.33;97560.46;109077;1272;41913;-79
2023/09/07 01:54:45;;;;;;;7.00;5.10;;;;;;;12.92;87.67;97560.52;109167;1266;24283;-79
2023/09/07 01:57:16;;;;;;;6.70;4.80;;;;;;;12.99;87.54;97560.45;109124;1272;25233;-79
2023/09/07 01:59:50;;;;;;;6.80;4.90;;;;;;;13.03;87.36;97561.77;109141;1272;22501;-79
2023/09/07 02:02:21;;;;;;;6.40;4.40;;;;;;;13.05;86.83;97559.14;109056;1272;22509;-79
2023/09/07 02:04:53;;;;;;;7.90;5.60;;;;;;;13.06;86.50;97559.20;109129;1272;25425;-79
2023/09/07 02:07:24;;;;;;;6.40;5.00;;;;;;;13.04;86.41;97560.00;108808;1272;24193;-79
2023/09/07 02:09:55;;;;;;;6.70;4.70;;;;;;;12.95;86.48;97558.70;108789;1272;22535;-79
2023/09/07 02:12:26;;;;;;;7.70;5.20;;;;;;;12.85;86.27;97558.35;108770;1272;29065;-79
2023/09/07 02:14:59;;;;;;;7.80;5.30;;;;;;;12.70;86.34;97556.94;108809;1268;22547;-79
2023/09/07 02:17:30;;;;;;;8.80;5.40;;;;;;;12.54;86.32;97554.02;108763;1266;22877;-79
2023/09/07 02:20:02;;;;;;;7.40;5.30;;;;;;;12.41;86.80;97555.10;108770;1272;23268;-79
2023/09/07 02:22:34;;;;;;;10.00;5.50;;;;;;;12.37;87.12;97554.23;108804;1271;65813;-79
2023/09/07 02:25:08;;;;;;;8.90;5.60;;;;;;;12.39;87.53;97554.30;108803;1271;22525;-79
2023/09/07 02:27:39;;;;;;;8.60;5.80;;;;;;;12.37;87.34;97551.52;108864;1271;22517;-79
2023/09/07 02:30:13;;;;;;;7.90;5.50;;;;;;;12.39;87.85;97549.30;108832;1271;22509;-79
2023/09/07 02:32:49;;;;;;;8.20;5.40;;;;;;;12.48;88.04;97549.86;108887;1271;22518;-79
2023/09/07 02:35:20;;;;;;;10.30;4.80;;;;;;;12.53;88.11;97551.73;108839;1271;22538;-79
2023/09/07 02:37:51;;;;;;;8.10;5.50;;;;;;;12.56;87.72;97544.71;108860;1271;24270;-79
2023/09/07 02:40:23;;;;;;;9.60;5.80;;;;;;;12.39;87.43;97544.77;108856;1266;22512;-80
2023/09/07 02:42:56;;;;;;;11.90;6.20;;;;;;;12.24;87.72;97544.94;109286;1271;25325;-79
2023/09/07 02:45:27;;;;;;;8.60;6.20;;;;;;;12.16;87.93;97544.56;109222;1272;22525;-79
2023/09/07 02:47:58;;;;;;;10.60;6.40;;;;;;;12.22;88.59;97547.85;109242;1265;23187;-79
2023/09/07 02:50:33;;;;;;;8.70;5.20;;;;;;;12.32;88.86;97549.08;109173;1269;22522;-79
2023/09/07 02:53:04;;;;;;;7.90;5.70;;;;;;;12.40;88.51;97545.46;109199;1266;57841;-79
2023/09/07 02:55:40;;;;;;;9.20;5.70;;;;;;;12.46;88.33;97547.54;108923;1269;22501;-79
2023/09/07 02:58:15;;;;;;;8.30;5.90;;;;;;;12.54;88.42;97548.97;108913;1271;25402;-79
2023/09/07 03:00:47;;;;;;;7.90;5.70;;;;;;;12.60;88.55;97550.83;108928;1272;22747;-79
2023/09/07 03:03:20;;;;;;;8.70;5.50;;;;;;;12.65;88.36;97548.62;108903;1272;22609;-79
2023/09/07 03:05:52;;;;;;;7.90;5.50;;;;;;;12.65;87.99;97545.34;108901;1269;24241;-79
2023/09/07 03:08:24;;;;;;;12.70;6.60;;;;;;;12.67;88.08;97548.86;108904;1272;24469;-79
2023/09/07 03:10:56;;;;;;;7.70;5.80;;;;;;;12.67;88.24;97548.11;108883;1271;22515;-79
2023/09/07 03:13:28;;;;;;;10.10;5.80;;;;;;;12.68;88.18;97553.76;108774;1267;161340;-79
2023/09/07 03:16:00;;;;;;;8.30;5.30;;;;;;;12.71;88.17;97555.83;108896;1272;22500;-79
2023/09/07 03:18:32;;;;;;;7.40;5.40;;;;;;;12.72;87.86;97556.93;108896;1271;22527;-79
2023/09/07 03:21:06;;;;;;;9.10;5.70;;;;;;;12.70;87.72;97559.66;108887;1272;22527;-79
2023/09/07 03:23:44;;;;;;;9.90;6.00;;;;;;;12.69;87.34;97557.80;108918;1267;23996;-79
2023/09/07 03:26:19;;;;;;;8.20;5.50;;;;;;;12.64;87.24;97557.25;108878;1272;22500;-79
2023/09/07 03:28:52;;;;;;;9.70;6.10;;;;;;;12.55;87.50;97556.90;108867;1272;26661;-79
2023/09/07 03:31:23;;;;;;;8.50;6.00;;;;;;;12.55;87.91;97553.08;108826;1272;127104;-79
2023/09/07 03:33:57;;;;;;;7.80;5.80;;;;;;;12.48;87.88;97551.41;108910;1269;23848;-79
2023/09/07 03:36:29;;;;;;;7.90;5.80;;;;;;;12.41;88.36;97551.48;108694;1272;24200;-79
2023/09/07 03:39:00;;;;;;;10.40;6.50;;;;;;;12.44;88.73;97553.13;108922;1269;23761;-79
2023/09/07 03:44:21;;;;;;;8.20;5.90;;;;;;;12.45;88.12;97555.30;108962;1266;22983;-79
2023/09/07 03:46:52;;;;;;;6.30;5.40;;;;;;;12.38;88.55;97558.86;108920;1271;25396;-79
2023/09/07 03:49:30;;;;;;;8.50;5.70;;;;;;;12.42;88.55;97558.19;108891;1272;23341;-79
2023/09/07 03:52:02;;;;;;;7.60;5.40;;;;;;;12.44;88.32;97561.16;108827;1271;68470;-79
2023/09/07 03:54:34;;;;;;;9.00;6.30;;;;;;;12.42;88.59;97562.38;108848;1271;22517;-79
2023/09/07 03:57:09;;;;;;;8.90;5.80;;;;;;;12.42;88.86;97563.55;108870;1272;22524;-79
2023/09/07 03:59:41;;;;;;;8.40;6.20;;;;;;;12.36;88.81;97563.59;108885;1272;22511;-78
2023/09/07 04:02:12;;;;;;;8.00;5.70;;;;;;;12.34;88.95;97568.01;108849;1272;23886;-78
2023/09/07 04:04:44;;;;;;;8.10;6.00;;;;;;;12.39;89.04;97566.05;108862;1272;24381;-79
2023/09/07 04:07:15;;;;;;;9.30;5.70;;;;;;;12.42;89.03;97565.73;108893;1271;22705;-79
2023/09/07 04:09:46;;;;;;;8.40;6.00;;;;;;;12.44;88.88;97565.67;108900;1271;22544;-78
2023/09/07 04:12:20;;;;;;;8.90;5.80;;;;;;;12.43;88.84;97571.42;108883;1271;22553;-78
2023/09/07 04:14:53;;;;;;;9.60;5.60;;;;;;;12.38;88.74;97570.25;108905;1269;22565;-78
2023/09/07 04:17:24;;;;;;;10.70;6.50;;;;;;;12.28;88.86;97568.13;108860;1272;22540;-78
2023/09/07 04:19:55;;;;;;;9.10;6.20;;;;;;;12.36;89.49;97569.66;108871;1271;26503;-78
2023/09/07 04:22:26;;;;;;;8.40;5.80;;;;;;;12.54;89.85;97571.36;108834;1272;34965;-78
2023/09/07 04:24:57;;;;;;;9.50;6.30;;;;;;;12.72;89.90;97571.51;108842;1269;25021;-79
2023/09/07 04:27:28;;;;;;;7.00;5.80;;;;;;;12.89;89.61;97571.11;108868;1272;22524;-79
2023/09/07 04:29:59;;;;;;;9.10;5.70;;;;;;;13.08;89.85;97574.27;108883;1269;22511;-79
2023/09/07 04:32:30;;;;;;;8.10;5.80;;;;;;;13.38;90.17;97574.10;108868;1269;23581;-79
2023/09/07 04:35:01;;;;;;;9.00;5.60;;;;;;;13.75;90.19;97576.98;108867;1272;22528;-79
2023/09/07 04:37:33;;;;;;;7.90;5.20;;;;;;;14.18;90.12;97570.41;108831;1269;22521;-79
2023/09/07 04:40:10;;;;;;;8.20;5.30;;;;;;;14.61;89.85;97570.27;108815;1272;24308;-79
2023/09/07 04:42:42;;;;;;;7.70;5.30;;;;;;;14.94;88.94;97565.32;108927;1271;25125;-79
2023/09/07 04:45:17;;;;;;;6.50;4.70;;;;;;;15.29;88.91;97568.31;108896;1266;23845;-78
2023/09/07 04:47:50;;;;;;;8.50;5.30;;;;;;;15.74;88.69;97567.58;108902;1271;24207;-79
2023/09/07 04:50:22;;;;;;;7.60;4.90;;;;;;;16.13;87.68;97567.30;108910;1272;22649;-79
2023/09/07 04:52:53;;;;;;;7.50;5.50;;;;;;;16.36;86.76;97562.19;108830;1267;35849;-79
2023/09/07 04:55:25;;;;;;;7.10;5.10;;;;;;;16.72;86.76;97566.06;108886;1270;22511;-79
2023/09/07 04:57:56;;;;;;;7.30;4.80;;;;;;;17.04;85.75;97569.15;108838;1269;22560;-79
2023/09/07 05:00:27;;;;;;;7.60;5.40;;;;;;;17.28;85.02;97568.88;108954;1272;22498;-79
2023/09/07 05:02:58;;;;;;;6.90;4.40;;;;;;;17.42;84.05;97572.28;108922;1271;22507;-79
2023/09/07 05:05:29;;;;;;;9.70;5.60;;;;;;;17.75;84.48;97573.67;108874;1267;26408;-79
2023/09/07 05:08:01;;;;;;;6.70;4.30;;;;;;;18.14;83.73;97575.13;108832;1267;26915;-79
2023/09/07 05:10:33;;;;;;;6.90;4.70;;;;;;;18.46;83.28;97579.88;108886;1271;22650;-79
2023/09/07 05:13:06;;;;;;;7.00;4.90;;;;;;;18.78;82.77;97577.77;108842;1271;26394;-79
2023/09/07 05:15:54;;;;;;;8.10;5.30;;;;;;;19.10;82.21;97576.67;108904;1266;22522;-79
2023/09/07 05:18:25;;;;;;;6.80;5.00;;;;;;;19.42;80.89;97580.36;109389;1269;26608;-79
2023/09/07 05:20:56;;;;;;;8.40;5.20;;;;;;;19.72;80.70;97582.23;109216;1269;22541;-79
2023/09/07 05:23:27;;;;;;;7.70;5.30;;;;;;;20.08;80.00;97586.46;109225;1267;22562;-79
2023/09/07 05:26:01;;;;;;;7.60;4.70;;;;;;;20.42;78.80;97584.52;109253;1264;22532;-79
2023/09/07 05:28:32;;;;;;;9.50;4.70;;;;;;;20.64;76.91;97589.67;109342;1269;24240;-79
2023/09/07 05:31:03;;;;;;;8.10;5.00;;;;;;;20.85;76.92;97590.48;109262;1267;22508;-79
2023/09/07 05:33:35;;;;;;;8.50;5.10;;;;;;;21.10;75.99;97589.23;109261;1269;22519;-78
2023/09/07 05:36:07;;;;;;;9.00;5.30;;;;;;;21.35;75.42;97592.05;109254;1272;22545;-79
2023/09/07 05:38:43;;;;;;;9.80;5.70;;;;;;;21.68;75.15;97596.38;109253;1272;22526;-79
2023/09/07 05:41:14;;;;;;;7.50;5.20;;;;;;;22.02;74.69;97602.23;109237;1272;23696;-79
2023/09/07 05:43:45;;;;;;;9.40;5.20;;;;;;;22.39;74.09;97601.55;109275;1269;22522;-79
2023/09/07 05:46:17;;;;;;;8.10;5.20;;;;;;;22.68;73.11;97600.88;109328;1271;22538;-79
2023/09/07 05:48:49;;;;;;;8.00;5.30;;;;;;;22.91;72.43;97600.48;109303;1266;23688;-79
2023/09/07 05:51:20;;;;;;;9.40;5.30;;;;;;;23.18;71.33;97599.56;109235;1272;22515;-79
2023/09/07 05:53:51;;;;;;;7.10;5.20;;;;;;;23.36;70.87;97600.14;109237;1268;22509;-79
2023/09/07 05:56:22;;;;;;;8.10;4.90;;;;;;;23.71;71.01;97595.00;109238;1272;22665;-78
2023/09/07 05:58:54;;;;;;;6.10;5.00;;;;;;;24.06;70.14;97589.21;109260;1267;22569;-79
2023/09/07 06:01:25;;;;;;;7.20;5.00;;;;;;;24.22;69.08;97588.08;109082;1269;113856;-79
2023/09/07 06:03:57;;;;;;;6.40;4.80;;;;;;;24.24;68.58;97588.90;108824;1272;25411;-78
2023/09/07 06:06:29;;;;;;;6.90;5.40;;;;;;;24.38;68.64;97591.95;109263;1270;22504;-79
2023/09/07 06:09:00;;;;;;;7.70;5.50;;;;;;;24.45;67.84;97591.20;109270;1267;22727;-78
2023/09/07 06:11:32;;;;;;;7.50;5.50;;;;;;;24.39;67.21;97590.71;108889;1270;37091;-78
2023/09/07 06:14:03;;;;;;;7.40;5.00;;;;;;;24.21;66.56;97591.52;108936;1272;24192;-78
2023/09/07 06:16:37;;;;;;;8.70;5.80;;;;;;;24.10;66.00;97596.20;108872;1252;22512;-78
2023/09/07 06:19:08;;;;;;;8.80;5.50;;;;;;;24.02;66.15;97594.88;108890;1272;22518;-80
2023/09/07 06:21:39;;;;;;;9.10;6.10;;;;;;;24.07;66.13;97598.92;109184;1272;36587;-80
2023/09/07 06:24:12;;;;;;;8.20;5.70;;;;;;;24.12;66.02;97599.30;108866;1272;22544;-79
2023/09/07 06:26:46;;;;;;;10.10;5.60;;;;;;;24.14;65.40;97603.46;108863;1272;22508;-79
2023/09/07 06:29:17;;;;;;;7.20;5.00;;;;;;;24.18;65.41;97606.73;108892;1272;22514;-79
2023/09/07 06:31:49;;;;;;;7.30;4.90;;;;;;;24.28;65.40;97606.41;109160;1272;36321;-80
2023/09/07 06:34:20;;;;;;;7.50;5.50;;;;;;;24.41;65.73;97604.73;109261;1266;22569;-80
2023/09/07 06:36:52;;;;;;;7.10;5.40;;;;;;;24.46;65.65;97605.31;109334;1270;22577;-80
2023/09/07 06:39:23;;;;;;;7.30;5.30;;;;;;;24.45;64.66;97602.82;109233;1271;22514;-80
2023/09/07 06:41:54;;;;;;;7.20;5.20;;;;;;;24.26;64.04;97601.34;109126;1270;53586;-79
2023/09/07 06:44:25;;;;;;;7.80;5.90;;;;;;;23.99;63.78;97601.54;109224;1267;22524;-79
2023/09/07 06:46:57;;;;;;;8.90;5.70;;;;;;;24.00;64.79;97605.98;109263;1272;24022;-79
2023/09/07 06:49:29;;;;;;;7.90;5.40;;;;;;;24.05;64.29;97608.41;109217;1270;25434;-79
2023/09/07 06:52:00;;;;;;;9.30;5.30;;;;;;;23.95;64.15;97607.16;109255;1271;33939;-79
2023/09/07 06:54:32;;;;;;;7.00;5.40;;;;;;;23.87;64.07;97611.06;108918;1272;24244;-79
2023/09/07 06:57:08;;;;;;;9.60;5.60;;;;;;;23.90;63.68;97614.56;108860;1272;22572;-79
2023/09/07 06:59:39;;;;;;;9.30;6.10;;;;;;;24.01;63.90;97618.25;108975;1272;22518;-79
2023/09/07 07:02:13;;;;;;;8.10;5.80;;;;;;;24.17;63.58;97616.54;108851;1272;48459;-80
2023/09/07 07:04:46;;;;;;;8.60;5.70;;;;;;;24.25;63.38;97618.58;108893;1270;22513;-80
2023/09/07 07:07:17;;;;;;;8.10;5.90;;;;;;;24.35;63.12;97620.80;109263;1269;23216;-80
2023/09/07 07:09:52;;;;;;;11.30;5.70;;;;;;;24.45;62.77;97624.50;109233;1268;22678;-80
2023/09/07 07:12:23;;;;;;;6.90;4.90;;;;;;;24.48;62.13;97623.19;109258;1266;30349;-81
2023/09/07 07:14:55;;;;;;;8.80;5.70;;;;;;;24.57;62.30;97628.87;109253;1272;23754;-80
2023/09/07 07:17:26;;;;;;;9.00;5.70;;;;;;;24.65;61.97;97629.73;109249;1266;25771;-81
2023/09/07 07:19:57;;;;;;;9.30;6.00;;;;;;;24.68;61.36;97629.90;109204;1257;22519;-81
2023/09/07 07:22:28;;;;;;;9.20;5.50;;;;;;;24.68;61.00;97629.65;109215;1272;22817;-80
2023/09/07 07:25:05;;;;;;;9.20;6.00;;;;;;;24.59;60.38;97628.86;109296;1272;24211;-80
2023/09/07 07:27:38;;;;;;;7.10;4.90;;;;;;;24.42;59.78;97626.30;109177;1267;23833;-80
2023/09/07 07:30:11;;;;;;;9.40;5.60;;;;;;;24.38;59.75;97620.38;109218;1272;22500;-78
2023/09/07 07:32:44;;;;;;;7.80;5.40;;;;;;;24.39;59.63;97624.41;108873;1269;24399;-79
2023/09/07 07:35:15;;;;;;;8.90;5.30;;;;;;;24.39;59.34;97624.48;108879;1272;22511;-78
2023/09/07 07:37:46;;;;;;;6.80;5.40;;;;;;;24.30;59.47;97624.54;108924;1269;22515;-79
2023/09/07 07:40:18;;;;;;;8.30;5.80;;;;;;;24.36;59.57;97626.02;108819;1272;22567;-79
2023/09/07 07:42:52;;;;;;;6.60;4.90;;;;;;;24.28;58.96;97624.45;108739;1270;22922;-79
2023/09/07 07:45:23;;;;;;;9.20;5.60;;;;;;;24.24;58.85;97627.16;108880;1271;22515;-79
2023/09/07 07:47:54;;;;;;;8.00;5.40;;;;;;;24.18;58.87;97624.77;108929;1264;22528;-79
2023/09/07 07:50:25;;;;;;;8.70;5.40;;;;;;;24.23;59.34;97627.02;108952;1272;22534;-78
2023/09/07 07:52:56;;;;;;;7.80;5.90;;;;;;;24.33;59.64;97626.00;108921;1271;23317;-78
2023/09/07 07:55:27;;;;;;;7.20;5.60;;;;;;;24.46;59.45;97627.77;108870;1272;22556;-79
2023/09/07 07:57:59;;;;;;;7.50;5.40;;;;;;;24.53;59.67;97628.30;108947;1272;22509;-79
2023/09/07 08:00:31;;;;;;;9.30;6.30;;;;;;;24.63;60.06;97627.35;108912;1272;22511;-79
2023/09/07 08:03:03;;;;;;;8.70;6.30;;;;;;;24.71;59.64;97626.63;108866;1272;22848;-79
2023/09/07 08:05:39;;;;;;;7.90;5.50;;;;;;;24.67;59.84;97629.86;108874;1266;22552;-78
2023/09/07 08:08:12;;;;;;;7.80;5.70;;;;;;;24.74;60.03;97626.50;108892;1256;25547;-78
2023/09/07 08:10:47;;;;;;;8.70;5.90;;;;;;;24.80;59.74;97631.63;108939;1272;22676;-77
2023/09/07 08:13:19;;;;;;;9.00;5.90;;;;;;;24.85;59.29;97630.74;108865;1272;24344;-79
2023/09/07 08:15:51;;;;;;;8.70;5.90;;;;;;;24.83;59.56;97628.45;108901;1272;22525;-79
2023/09/07 08:18:23;;;;;;;8.30;6.00;;;;;;;24.86;59.48;97631.61;108916;1272;22508;-78
2023/09/07 08:20:55;;;;;;;11.00;6.60;;;;;;;24.72;58.73;97638.13;108840;1269;22561;-81
2023/09/07 08:23:26;;;;;;;10.00;6.20;;;;;;;24.53;58.61;97636.75;109212;1272;41173;-80
2023/09/07 08:25:58;;;;;;;8.30;6.00;;;;;;;24.36;58.90;97634.70;108880;1269;23255;-79
2023/09/07 08:28:29;;;;;;;9.20;6.10;;;;;;;24.39;59.16;97636.20;108868;1266;23803;-79
2023/09/07 08:31:01;;;;;;;9.90;5.90;;;;;;;24.18;58.46;97634.55;108974;1264;22572;-80
2023/09/07 08:33:35;;;;;;;8.80;5.20;;;;;;;24.17;58.86;97641.23;108896;1272;22534;-80
2023/09/07 08:36:08;;;;;;;6.40;5.10;;;;;;;23.96;57.50;97641.59;108907;1272;22624;-80
2023/09/07 08:38:43;;;;;;;8.20;5.40;;;;;;;23.69;57.13;97644.08;108932;1269;22522;-81
2023/09/07 08:41:16;;;;;;;8.40;6.20;;;;;;;23.31;56.69;97644.05;108935;1272;22629;-81
2023/09/07 08:43:49;;;;;;;8.40;5.50;;;;;;;23.14;57.05;97640.47;108971;1270;22560;-79
2023/09/07 08:46:23;;;;;;;7.60;5.50;;;;;;;23.18;57.09;97644.05;108885;1271;22576;-78
2023/09/07 08:48:59;;;;;;;7.20;5.40;;;;;;;23.19;57.33;97641.84;108954;1265;26570;-78
2023/09/07 08:51:31;;;;;;;9.50;5.50;;;;;;;23.19;57.18;97641.01;108875;1271;22498;-79
2023/09/07 08:54:04;;;;;;;8.90;5.60;;;;;;;23.17;57.47;97645.11;108894;1267;26930;-78
2023/09/07 08:56:36;;;;;;;8.10;5.80;;;;;;;23.21;57.67;97645.04;108911;1267;22549;-77
2023/09/07 08:59:07;;;;;;;8.10;5.50;;;;;;;23.24;57.52;97642.02;108891;1266;22701;-78
2023/09/07 09:01:42;;;;;;;8.40;5.70;;;;;;;23.05;56.30;97640.77;108781;1268;49143;-78
2023/09/07 09:04:13;;;;;;;7.10;5.20;;;;;;;22.73;55.45;97641.48;108868;1267;22502;-77
2023/09/07 09:06:44;;;;;;;8.50;5.80;;;;;;;22.52;55.84;97640.48;108844;1269;23842;-77
2023/09/07 09:09:25;;;;;;;9.40;5.50;;;;;;;22.49;56.36;97639.05;108869;1272;24225;-78
2023/09/07 09:11:56;;;;;;;7.90;5.30;;;;;;;22.65;57.28;97631.62;108920;1260;22568;-79
2023/09/07 09:14:28;;;;;;;7.20;5.60;;;;;;;22.83;57.11;97636.20;108933;1264;22587;-78
2023/09/07 09:16:59;;;;;;;8.00;5.20;;;;;;;22.83;57.27;97631.67;108895;1272;22588;-78
2023/09/07 09:19:35;;;;;;;7.30;4.80;;;;;;;22.81;56.71;97634.33;108787;1269;22522;-78
2023/09/07 09:22:07;;;;;;;7.60;5.40;;;;;;;22.81;56.93;97634.12;108668;1259;22534;-78
2023/09/07 09:24:39;;;;;;;7.50;5.30;;;;;;;22.80;56.93;97633.60;108799;1269;25367;-76
2023/09/07 09:27:12;;;;;;;8.00;5.40;;;;;;;22.82;57.17;97631.45;108625;1264;24970;-76
2023/09/07 09:29:42;;;;;;;7.60;5.40;;;;;;;22.79;56.59;97634.20;108596;1267;22536;-76
2023/09/07 09:32:16;;;;;;;7.00;5.20;;;;;;;22.70;56.53;97634.56;108722;1272;28983;-75
2023/09/07 09:34:47;;;;;;;8.10;5.50;;;;;;;22.59;56.39;97636.16;108857;1272;22527;-75
2023/09/07 09:37:19;;;;;;;7.60;4.90;;;;;;;22.45;56.20;97643.64;108871;1272;22491;-75
2023/09/07 09:39:53;;;;;;;10.10;5.20;;;;;;;22.35;55.93;97644.64;108865;1263;22725;-74
2023/09/07 09:42:29;;;;;;;6.30;4.40;;;;;;;22.30;56.07;97640.45;108869;1272;22517;-76
2023/09/07 09:45:02;;;;;;;8.00;5.70;;;;;;;22.30;56.25;97638.80;108927;1267;23067;-76
2023/09/07 09:47:36;;;;;;;9.00;6.00;;;;;;;22.33;56.48;97638.30;108922;1271;23816;-76
2023/09/07 09:50:10;;;;;;;7.10;5.20;;;;;;;22.27;56.16;97635.17;108954;1267;24914;-75
2023/09/07 09:52:45;;;;;;;9.20;5.70;;;;;;;22.26;56.65;97638.84;108915;1272;22555;-76
2023/09/07 09:55:18;;;;;;;9.10;6.10;;;;;;;22.27;56.55;97641.42;108897;1272;22524;-76
2023/09/07 09:57:51;;;;;;;7.60;5.90;;;;;;;22.30;56.60;97637.73;108951;1272;22524;-76
2023/09/07 10:00:25;;;;;;;8.90;5.90;;;;;;;22.32;56.97;97633.85;108866;1272;22554;-76
2023/09/07 10:03:08;;;;;;;8.50;5.50;;;;;;;22.39;57.37;97633.52;108889;1267;22513;-78
2023/09/07 10:05:40;;;;;;;9.60;6.40;;;;;;;22.36;56.90;97633.24;108868;1265;22664;-78
2023/09/07 10:08:15;;;;;;;8.40;5.80;;;;;;;22.36;57.14;97632.64;108811;1271;25249;-79
2023/09/07 10:10:54;;;;;;;7.70;5.30;;;;;;;22.46;57.41;97634.92;108873;1271;22582;-77
2023/09/07 10:13:33;;;;;;;9.40;5.60;;;;;;;22.55;57.40;97629.33;108916;1272;24060;-78
2023/09/07 10:16:08;;;;;;;10.20;5.50;;;;;;;22.57;57.80;97628.93;108939;1254;22520;-77
2023/09/07 10:18:44;;;;;;;9.60;6.00;;;;;;;22.70;57.98;97626.85;108779;1266;22522;-78
2023/09/07 10:21:17;;;;;;;9.00;5.70;;;;;;;22.73;58.02;97623.02;108725;1267;25226;-78
2023/09/07 10:23:52;;;;;;;15.70;6.50;;;;;;;22.86;58.87;97616.91;108772;1267;24334;-78
2023/09/07 10:26:23;;;;;;;9.40;6.10;;;;;;;23.01;58.98;97616.89;108880;1272;22543;-79
2023/09/07 10:29:05;;;;;;;8.80;5.40;;;;;;;23.05;58.82;97618.81;108629;1266;27179;-79
2023/09/07 10:31:38;;;;;;;8.40;5.70;;;;;;;23.07;58.82;97625.06;109247;1268;23977;-81
2023/09/07 10:34:17;;;;;;;9.40;6.00;;;;;;;22.95;58.20;97619.48;109356;1264;22532;-79
2023/09/07 10:36:59;;;;;;;7.30;5.70;;;;;;;22.97;59.25;97618.40;108943;1272;24023;-79
2023/09/07 10:39:32;;;;;;;;;;;;;;;22.95;58.29;97618.86;108812;1272;23854;-78
2023/09/07 10:42:03;;;;;;;8.00;5.70;;;;;;;22.92;58.61;97613.12;108788;1271;23976;-78
2023/09/07 10:44:36;;;;;;;8.00;5.60;;;;;;;22.92;58.72;97613.27;108949;1264;25591;-79
2023/09/07 10:47:09;;;;;;;7.80;5.90;;;;;;;22.98;59.47;97613.04;108901;1264;22507;-80
2023/09/07 10:49:43;;;;;;;11.00;5.50;;;;;;;23.09;59.63;97608.47;108867;1271;22632;-80
2023/09/07 10:52:16;;;;;;;8.60;6.00;;;;;;;23.15;59.30;97610.20;108967;1272;22501;-81
2023/09/07 10:54:56;;;;;;;8.60;6.10;;;;;;;23.03;58.31;97610.83;108900;1272;22579;-80
2023/09/07 10:57:27;;;;;;;8.80;5.40;;;;;;;22.94;58.79;97606.93;108906;1266;22975;-80
2023/09/07 10:59:59;;;;;;;8.50;5.90;;;;;;;22.99;58.68;97610.35;108913;1272;26541;-80
2023/09/07 11:02:30;;;;;;;10.00;6.10;;;;;;;22.96;58.76;97607.63;108922;1271;22529;-80
2023/09/07 11:05:01;;;;;;;7.80;5.30;;;;;;;23.02;59.00;97609.75;108845;1267;22512;-80
2023/09/07 11:07:40;;;;;;;7.30;5.00;;;;;;;23.06;58.97;97607.80;108915;1271;22539;-80
2023/09/07 11:10:12;;;;;;;8.30;5.80;;;;;;;23.12;59.44;97605.84;109211;1272;22508;-80
2023/09/07 11:12:47;;;;;;;9.80;6.00;;;;;;;23.17;59.06;97613.21;109194;1269;22517;-81
2023/09/07 11:15:20;;;;;;;10.30;5.90;;;;;;;23.02;58.21;97612.71;109181;1265;22576;-81
2023/09/07 11:17:52;;;;;;;8.00;5.30;;;;;;;23.02;59.22;97607.20;109191;1272;22517;-81
2023/09/07 11:20:26;;;;;;;10.30;5.80;;;;;;;23.14;59.09;97610.15;109189;1272;25430;-80
2023/09/07 11:22:57;;;;;;;6.70;5.20;;;;;;;23.13;58.67;97609.36;109176;1269;22532;-80
2023/09/07 11:25:36;;;;;;;9.80;5.90;;;;;;;23.17;58.79;97610.73;109284;1266;25420;-80
2023/09/07 11:28:13;;;;;;;7.90;5.30;;;;;;;23.09;57.90;97613.21;109239;1271;24219;-81
2023/09/07 11:30:53;;;;;;;6.60;5.80;;;;;;;22.90;57.69;97609.27;109007;1271;25301;-78
2023/09/07 11:33:24;;;;;;;6.40;5.20;;;;;;;22.90;58.37;97604.16;108904;1271;23832;-78
2023/09/07 11:35:55;;;;;;;7.20;5.50;;;;;;;22.98;58.44;97610.02;108943;1271;22570;-78
2023/09/07 11:38:37;;;;;;;6.90;5.10;;;;;;;23.05;58.62;97610.95;108908;1266;23983;-78
2023/09/07 11:41:10;;;;;;;8.00;5.50;;;;;;;23.03;58.25;97608.34;108896;1272;23847;-78
2023/09/07 11:43:45;;;;;;;8.10;5.20;;;;;;;23.03;58.32;97608.40;108936;1272;22519;-78
2023/09/07 11:46:16;;;;;;;7.00;5.10;;;;;;;23.05;58.80;97601.06;108919;1266;24201;-78
2023/09/07 11:48:47;;;;;;;7.40;4.70;;;;;;;23.10;58.17;97599.96;108948;1271;22519;-78
2023/09/07 11:51:18;;;;;;;8.70;5.80;;;;;;;23.11;58.29;97597.00;108912;1263;22515;-78
2023/09/07 11:53:49;;;;;;;7.40;5.70;;;;;;;23.19;58.07;97599.64;108958;1269;23835;-78